createdAt,value
2017-04-14T00:00:49.068Z,0
2017-04-14T00:01:49.604Z,0
2017-04-14T00:02:50.133Z,0
2017-04-14T00:03:50.661Z,0
2017-04-14T00:04:51.196Z,0
2017-04-14T00:05:51.725Z,0
2017-04-14T00:06:52.411Z,0
2017-04-14T00:07:52.792Z,0
2017-04-14T00:08:53.320Z,0
2017-04-14T00:09:53.860Z,0
2017-04-14T00:10:54.381Z,0
2017-04-14T00:11:54.958Z,0
2017-04-14T00:12:55.448Z,0
2017-04-14T00:13:55.979Z,0
2017-04-14T00:14:56.506Z,0
2017-04-14T00:15:57.039Z,0
2017-04-14T00:16:57.714Z,0
2017-04-14T00:17:58.097Z,0
2017-04-14T00:18:58.778Z,0
2017-04-14T00:19:59.161Z,0
2017-04-14T00:20:59.842Z,0
2017-04-14T00:22:00.231Z,0
2017-04-14T00:23:00.766Z,0
2017-04-14T00:24:01.298Z,0
2017-04-14T00:25:01.826Z,0
2017-04-14T00:26:02.364Z,0
2017-04-14T00:27:02.893Z,0
2017-04-14T00:28:03.426Z,0
2017-04-14T00:29:03.950Z,0
2017-04-14T00:30:04.482Z,0
2017-04-14T00:31:05.012Z,0
2017-04-14T00:32:05.542Z,0
2017-04-14T00:33:06.082Z,0
2017-04-14T00:34:06.600Z,0
2017-04-14T00:35:07.131Z,0
2017-04-14T00:36:07.663Z,0
2017-04-14T00:37:08.202Z,0
2017-04-14T00:38:08.748Z,0
2017-04-14T00:39:09.257Z,0
2017-04-14T00:40:09.787Z,0
2017-04-14T00:41:10.470Z,0
2017-04-14T00:42:10.852Z,0
2017-04-14T00:43:11.380Z,0
2017-04-14T00:44:11.912Z,0
2017-04-14T00:45:12.439Z,0
2017-04-14T00:46:12.974Z,0
2017-04-14T00:47:13.655Z,0
2017-04-14T00:48:14.038Z,0
2017-04-14T00:49:14.565Z,0
2017-04-14T00:50:15.096Z,0
2017-04-14T00:51:15.774Z,0
2017-04-14T00:52:16.154Z,0
2017-04-14T00:53:16.687Z,0
2017-04-14T00:54:17.367Z,0
2017-04-14T00:55:17.903Z,0
2017-04-14T00:56:18.288Z,0
2017-04-14T00:57:18.816Z,0
2017-04-14T00:58:19.350Z,0
2017-04-14T00:59:19.886Z,0
2017-04-14T01:00:20.425Z,0
2017-04-14T01:01:20.952Z,0
2017-04-14T01:02:21.480Z,0
2017-04-14T01:03:22.164Z,0
2017-04-14T01:04:22.554Z,0
2017-04-14T01:05:23.091Z,0
2017-04-14T01:06:23.619Z,0
2017-04-14T01:07:24.145Z,0
2017-04-14T01:08:24.679Z,0
2017-04-14T01:09:25.205Z,0
2017-04-14T01:10:25.736Z,0
2017-04-14T01:11:26.416Z,0
2017-04-14T01:12:26.842Z,0
2017-04-14T01:13:27.330Z,0
2017-04-14T01:14:27.859Z,0
2017-04-14T01:15:28.398Z,0
2017-04-14T01:16:28.920Z,0
2017-04-14T01:17:29.451Z,0
2017-04-14T01:18:29.985Z,0
2017-04-14T01:19:30.510Z,0
2017-04-14T01:20:31.040Z,0
2017-04-14T01:21:31.575Z,0
2017-04-14T01:22:32.103Z,0
2017-04-14T01:23:32.634Z,0
2017-04-14T01:24:33.170Z,0
2017-04-14T01:25:33.848Z,0
2017-04-14T01:26:34.231Z,0
2017-04-14T01:27:34.761Z,0
2017-04-14T01:28:35.292Z,0
2017-04-14T01:29:35.821Z,0
2017-04-14T01:30:36.367Z,0
2017-04-14T01:31:36.885Z,0
2017-04-14T01:32:37.417Z,0
2017-04-14T01:33:37.941Z,0
2017-04-14T01:34:38.476Z,0
2017-04-14T01:35:39.001Z,0
2017-04-14T01:36:39.532Z,0
2017-04-14T01:37:40.066Z,0
2017-04-14T01:38:40.597Z,0
2017-04-14T01:39:41.130Z,0
2017-04-14T01:40:41.658Z,0
2017-04-14T01:41:42.186Z,0
2017-04-14T01:42:42.718Z,0
2017-04-14T01:43:43.247Z,0
2017-04-14T01:44:43.783Z,0
2017-04-14T01:45:44.324Z,0
2017-04-14T01:46:44.867Z,0
2017-04-14T01:47:45.397Z,0
2017-04-14T01:48:45.921Z,0
2017-04-14T01:49:46.450Z,0
2017-04-14T01:50:46.990Z,0
2017-04-14T01:51:47.510Z,0
2017-04-14T01:52:48.050Z,0
2017-04-14T01:53:48.580Z,0
2017-04-14T01:54:49.153Z,0
2017-04-14T01:55:49.634Z,0
2017-04-14T01:56:50.165Z,0
2017-04-14T01:57:50.695Z,0
2017-04-14T01:58:51.226Z,0
2017-04-14T01:59:51.754Z,0
2017-04-14T02:00:52.288Z,0
2017-04-14T02:01:52.822Z,0
2017-04-14T02:02:53.348Z,0
2017-04-14T02:03:53.876Z,0
2017-04-14T02:04:54.409Z,0
2017-04-14T02:05:54.937Z,0
2017-04-14T02:06:55.466Z,0
2017-04-14T02:07:56.156Z,0
2017-04-14T02:08:56.533Z,0
2017-04-14T02:09:57.060Z,0
2017-04-14T02:10:57.592Z,0
2017-04-14T02:11:58.121Z,0
2017-04-14T02:12:58.655Z,0
2017-04-14T02:13:59.182Z,0
2017-04-14T02:14:59.716Z,0
2017-04-14T02:16:00.243Z,0
2017-04-14T02:17:00.771Z,0
2017-04-14T02:18:01.300Z,0
2017-04-14T02:19:01.830Z,0
2017-04-14T02:20:02.361Z,0
2017-04-14T02:21:02.890Z,0
2017-04-14T02:22:03.418Z,0
2017-04-14T02:23:03.952Z,0
2017-04-14T02:24:04.478Z,0
2017-04-14T02:25:05.011Z,0
2017-04-14T02:26:05.545Z,0
2017-04-14T02:27:06.080Z,0
2017-04-14T02:28:06.617Z,0
2017-04-14T02:29:07.154Z,0
2017-04-14T02:30:07.687Z,0
2017-04-14T02:31:08.217Z,0
2017-04-14T02:32:08.749Z,0
2017-04-14T02:33:09.275Z,0
2017-04-14T02:34:09.806Z,0
2017-04-14T02:35:10.340Z,0
2017-04-14T02:36:10.870Z,0
2017-04-14T02:37:11.405Z,0
2017-04-14T02:38:11.931Z,0
2017-04-14T02:39:12.462Z,0
2017-04-14T02:40:12.988Z,0
2017-04-14T02:41:13.519Z,0
2017-04-14T02:42:14.056Z,0
2017-04-14T02:43:16.245Z,0
2017-04-14T02:44:15.112Z,0
2017-04-14T02:45:15.673Z,0
2017-04-14T02:46:16.177Z,0
2017-04-14T02:47:16.706Z,0
2017-04-14T02:48:17.393Z,0
2017-04-14T02:49:17.769Z,0
2017-04-14T02:50:18.299Z,0
2017-04-14T02:51:18.835Z,0
2017-04-14T02:52:19.367Z,0
2017-04-14T02:53:19.897Z,0
2017-04-14T02:54:20.421Z,0
2017-04-14T02:55:20.951Z,0
2017-04-14T02:56:21.478Z,0
2017-04-14T02:57:22.012Z,0
2017-04-14T02:58:22.546Z,0
2017-04-14T02:59:23.073Z,0
2017-04-14T03:00:23.753Z,0
2017-04-14T03:01:24.136Z,0
2017-04-14T03:02:24.816Z,0
2017-04-14T03:03:25.206Z,0
2017-04-14T03:04:25.735Z,0
2017-04-14T03:05:26.261Z,0
2017-04-14T03:06:26.790Z,0
2017-04-14T03:07:27.324Z,0
2017-04-14T03:08:27.858Z,0
2017-04-14T03:09:28.393Z,0
2017-04-14T03:10:28.933Z,0
2017-04-14T03:11:29.463Z,0
2017-04-14T03:12:29.993Z,0
2017-04-14T03:13:30.522Z,0
2017-04-14T03:14:31.201Z,0
2017-04-14T03:15:31.586Z,0
2017-04-14T03:16:32.113Z,0
2017-04-14T03:17:32.647Z,0
2017-04-14T03:18:33.176Z,0
2017-04-14T03:19:33.711Z,0
2017-04-14T03:20:34.240Z,0
2017-04-14T03:21:34.773Z,0
2017-04-14T03:22:35.307Z,0
2017-04-14T03:23:35.834Z,0
2017-04-14T03:24:36.366Z,0
2017-04-14T03:25:36.896Z,0
2017-04-14T03:26:37.425Z,0
2017-04-14T03:27:37.960Z,0
2017-04-14T03:28:38.490Z,0
2017-04-14T03:29:39.022Z,0
2017-04-14T03:30:39.548Z,0
2017-04-14T03:31:40.083Z,0
2017-04-14T03:32:40.614Z,0
2017-04-14T03:33:41.148Z,0
2017-04-14T03:34:41.690Z,0
2017-04-14T03:35:42.218Z,0
2017-04-14T03:36:42.743Z,0
2017-04-14T03:37:43.274Z,0
2017-04-14T03:38:43.803Z,0
2017-04-14T03:39:44.334Z,0
2017-04-14T03:40:45.016Z,0
2017-04-14T03:41:45.399Z,0
2017-04-14T03:42:46.084Z,0
2017-04-14T03:43:46.462Z,0
2017-04-14T03:44:47.018Z,0
2017-04-14T03:45:47.522Z,0
2017-04-14T03:46:48.051Z,0
2017-04-14T03:47:48.590Z,0
2017-04-14T03:48:49.108Z,0
2017-04-14T03:49:49.641Z,0
2017-04-14T03:50:50.328Z,0
2017-04-14T03:51:50.709Z,0
2017-04-14T03:52:51.243Z,0
2017-04-14T03:53:51.775Z,0
2017-04-14T03:54:52.305Z,4
2017-04-14T03:55:52.837Z,4
2017-04-14T03:56:53.368Z,0
2017-04-14T03:57:54.046Z,4
2017-04-14T03:58:54.428Z,4
2017-04-14T03:59:54.968Z,4
2017-04-14T04:00:55.495Z,8
2017-04-14T04:01:56.020Z,8
2017-04-14T04:02:56.696Z,12
2017-04-14T04:03:57.082Z,12
2017-04-14T04:04:57.757Z,12
2017-04-14T04:05:58.138Z,16
2017-04-14T04:06:58.673Z,20
2017-04-14T04:07:59.203Z,28
2017-04-14T04:08:59.743Z,28
2017-04-14T04:10:00.274Z,40
2017-04-14T04:11:00.831Z,44
2017-04-14T04:12:01.332Z,52
2017-04-14T04:13:01.857Z,60
2017-04-14T04:14:02.391Z,68
2017-04-14T04:15:02.920Z,76
2017-04-14T04:16:03.457Z,84
2017-04-14T04:17:03.980Z,96
2017-04-14T04:18:04.521Z,108
2017-04-14T04:19:05.041Z,124
2017-04-14T04:20:05.576Z,148
2017-04-14T04:21:06.105Z,172
2017-04-14T04:22:06.636Z,192
2017-04-14T04:23:07.163Z,216
2017-04-14T04:24:07.696Z,236
2017-04-14T04:25:08.227Z,256
2017-04-14T04:26:08.758Z,276
2017-04-14T04:27:09.285Z,304
2017-04-14T04:28:09.821Z,328
2017-04-14T04:29:10.349Z,360
2017-04-14T04:30:10.885Z,404
2017-04-14T04:31:11.417Z,456
2017-04-14T04:32:12.109Z,492
2017-04-14T04:33:12.644Z,532
2017-04-14T04:34:13.033Z,580
2017-04-14T04:35:13.569Z,616
2017-04-14T04:36:14.099Z,652
2017-04-14T04:37:14.638Z,680
2017-04-14T04:38:15.153Z,712
2017-04-14T04:39:15.831Z,752
2017-04-14T04:40:16.213Z,776
2017-04-14T04:41:16.782Z,812
2017-04-14T04:42:17.282Z,880
2017-04-14T04:43:17.803Z,956
2017-04-14T04:44:18.482Z,1056
2017-04-14T04:45:18.862Z,1164
2017-04-14T04:46:19.401Z,1268
2017-04-14T04:47:19.919Z,1352
2017-04-14T04:48:20.451Z,1428
2017-04-14T04:49:20.980Z,1500
2017-04-14T04:50:21.512Z,1536
2017-04-14T04:51:22.051Z,1576
2017-04-14T04:52:22.575Z,1620
2017-04-14T04:53:23.112Z,1652
2017-04-14T04:54:23.658Z,1696
2017-04-14T04:55:24.317Z,1748
2017-04-14T04:56:24.701Z,1832
2017-04-14T04:57:25.248Z,1984
2017-04-14T04:58:25.767Z,2188
2017-04-14T04:59:26.308Z,2428
2017-04-14T05:00:26.825Z,2608
2017-04-14T05:01:27.350Z,2712
2017-04-14T05:02:27.883Z,2880
2017-04-14T05:03:28.413Z,3152
2017-04-14T05:04:28.937Z,3452
2017-04-14T05:05:29.466Z,3656
2017-04-14T05:06:29.998Z,3896
2017-04-14T05:07:30.674Z,4212
2017-04-14T05:08:31.058Z,4404
2017-04-14T05:09:31.589Z,4324
2017-04-14T05:10:32.123Z,4148
2017-04-14T05:11:32.802Z,4316
2017-04-14T05:12:33.189Z,4472
2017-04-14T05:13:34.313Z,4392
2017-04-14T05:14:34.261Z,4352
2017-04-14T05:15:34.787Z,4552
2017-04-14T05:16:35.320Z,4852
2017-04-14T05:17:35.852Z,5276
2017-04-14T05:18:36.391Z,5404
2017-04-14T05:19:36.923Z,5024
2017-04-14T05:20:37.450Z,4416
2017-04-14T05:21:37.979Z,4068
2017-04-14T05:22:38.510Z,3904
2017-04-14T05:23:39.057Z,3820
2017-04-14T05:24:39.579Z,4016
2017-04-14T05:25:40.111Z,4616
2017-04-14T05:26:40.641Z,5356
2017-04-14T05:27:41.319Z,6060
2017-04-14T05:28:41.705Z,6528
2017-04-14T05:29:42.230Z,6976
2017-04-14T05:30:42.756Z,7460
2017-04-14T05:31:43.437Z,7748
2017-04-14T05:32:43.819Z,8296
2017-04-14T05:33:44.351Z,8640
2017-04-14T05:34:44.882Z,8924
2017-04-14T05:35:45.409Z,9484
2017-04-14T05:36:46.089Z,9812
2017-04-14T05:37:46.472Z,10080
2017-04-14T05:38:47.003Z,10220
2017-04-14T05:39:47.529Z,10516
2017-04-14T05:40:48.062Z,10716
2017-04-14T05:41:48.592Z,11548
2017-04-14T05:42:49.123Z,11920
2017-04-14T05:43:49.651Z,11756
2017-04-14T05:44:50.186Z,11804
2017-04-14T05:45:50.748Z,12268
2017-04-14T05:46:51.240Z,12464
2017-04-14T05:47:51.774Z,12132
2017-04-14T05:48:52.305Z,12092
2017-04-14T05:49:52.836Z,12348
2017-04-14T05:50:53.366Z,12300
2017-04-14T05:51:53.888Z,12576
2017-04-14T05:52:54.427Z,13112
2017-04-14T05:53:54.956Z,13400
2017-04-14T05:54:55.483Z,13888
2017-04-14T05:55:56.045Z,14020
2017-04-14T05:56:56.545Z,13804
2017-04-14T05:57:57.083Z,13768
2017-04-14T05:58:57.615Z,14036
2017-04-14T05:59:58.156Z,14404
2017-04-14T06:00:58.685Z,14660
2017-04-14T06:01:59.358Z,15484
2017-04-14T06:02:59.891Z,15932
2017-04-14T06:04:00.420Z,15884
2017-04-14T06:05:00.984Z,15764
2017-04-14T06:06:01.340Z,15596
2017-04-14T06:07:01.861Z,15704
2017-04-14T06:08:02.393Z,16656
2017-04-14T06:09:02.925Z,17208
2017-04-14T06:10:03.607Z,15616
2017-04-14T06:11:03.995Z,15128
2017-04-14T06:12:04.521Z,15756
2017-04-14T06:13:05.041Z,17176
2017-04-14T06:14:05.573Z,17044
2017-04-14T06:15:06.102Z,18068
2017-04-14T06:16:06.636Z,18788
2017-04-14T06:17:07.164Z,20416
2017-04-14T06:18:07.691Z,21376
2017-04-14T06:19:08.231Z,21472
2017-04-14T06:20:08.759Z,21856
2017-04-14T06:21:09.293Z,24896
2017-04-14T06:22:09.818Z,25792
2017-04-14T06:23:10.346Z,35104
2017-04-14T06:24:10.880Z,43840
2017-04-14T06:25:11.409Z,28096
2017-04-14T06:26:11.934Z,27136
2017-04-14T06:27:12.466Z,27648
2017-04-14T06:28:12.995Z,33472
2017-04-14T06:29:13.532Z,45504
2017-04-14T06:30:14.059Z,37760
2017-04-14T06:31:14.595Z,27808
2017-04-14T06:32:15.118Z,36352
2017-04-14T06:33:15.649Z,35968
2017-04-14T06:34:16.188Z,27744
2017-04-14T06:35:16.711Z,25728
2017-04-14T06:36:17.242Z,29376
2017-04-14T06:37:17.775Z,23392
2017-04-14T06:38:18.315Z,29024
2017-04-14T06:39:18.845Z,27136
2017-04-14T06:40:19.528Z,25024
2017-04-14T06:41:19.913Z,39392
2017-04-14T06:42:20.443Z,33504
2017-04-14T06:43:20.967Z,36544
2017-04-14T06:44:21.497Z,36064
2017-04-14T06:45:22.031Z,32384
2017-04-14T06:46:22.557Z,31680
2017-04-14T06:47:23.105Z,31392
2017-04-14T06:48:23.615Z,32480
2017-04-14T06:49:24.151Z,42496
2017-04-14T06:50:24.677Z,40192
2017-04-14T06:51:25.207Z,30720
2017-04-14T06:52:25.748Z,33696
2017-04-14T06:53:26.269Z,39488
2017-04-14T06:54:26.796Z,49792
2017-04-14T06:55:27.476Z,55200
2017-04-14T06:56:27.857Z,48128
2017-04-14T06:57:28.390Z,28928
2017-04-14T06:58:28.919Z,57184
2017-04-14T06:59:29.456Z,25856
2017-04-14T07:00:30.133Z,48512
2017-04-14T07:01:30.663Z,40480
2017-04-14T07:02:31.047Z,44992
2017-04-14T07:03:31.578Z,21824
2017-04-14T07:04:32.112Z,25760
2017-04-14T07:05:32.640Z,31328
2017-04-14T07:06:33.314Z,30496
2017-04-14T07:07:33.698Z,65216
2017-04-14T07:08:34.229Z,25504
2017-04-14T07:09:34.765Z,24992
2017-04-14T07:10:35.291Z,25984
2017-04-14T07:11:35.820Z,25728
2017-04-14T07:12:36.353Z,50944
2017-04-14T07:13:36.882Z,21824
2017-04-14T07:14:37.411Z,50016
2017-04-14T07:15:37.946Z,22848
2017-04-14T07:16:38.627Z,59968
2017-04-14T07:17:39.011Z,58304
2017-04-14T07:18:39.579Z,69056
2017-04-14T07:19:40.079Z,65024
2017-04-14T07:20:40.618Z,66304
2017-04-14T07:21:41.296Z,29504
2017-04-14T07:22:41.679Z,44000
2017-04-14T07:23:42.218Z,40544
2017-04-14T07:24:42.741Z,36032
2017-04-14T07:25:43.270Z,46880
2017-04-14T07:26:43.953Z,49792
2017-04-14T07:27:44.477Z,41280
2017-04-14T07:28:44.859Z,34336
2017-04-14T07:29:45.392Z,33920
2017-04-14T07:30:45.913Z,32608
2017-04-14T07:31:46.451Z,33536
2017-04-14T07:32:46.978Z,33568
2017-04-14T07:33:47.511Z,36096
2017-04-14T07:34:48.063Z,63552
2017-04-14T07:35:48.572Z,55520
2017-04-14T07:36:49.099Z,43136
2017-04-14T07:37:49.640Z,50240
2017-04-14T07:38:50.314Z,87648
2017-04-14T07:39:50.692Z,45856
2017-04-14T07:40:51.373Z,34752
2017-04-14T07:41:51.758Z,55584
2017-04-14T07:42:52.291Z,34112
2017-04-14T07:43:52.813Z,68480
2017-04-14T07:44:53.497Z,34624
2017-04-14T07:45:53.877Z,33408
2017-04-14T07:46:54.406Z,37600
2017-04-14T07:47:54.936Z,76928
2017-04-14T07:48:55.466Z,40992
2017-04-14T07:49:55.995Z,42752
2017-04-14T07:50:56.677Z,83648
2017-04-14T07:51:57.063Z,69472
2017-04-14T07:52:57.584Z,45472
2017-04-14T07:53:58.117Z,35488
2017-04-14T07:54:58.639Z,34080
2017-04-14T07:55:59.173Z,34496
2017-04-14T07:56:59.702Z,36640
2017-04-14T07:58:00.241Z,37984
2017-04-14T07:59:00.772Z,38368
2017-04-14T08:00:01.308Z,39840
2017-04-14T08:01:01.841Z,40768
2017-04-14T08:02:02.377Z,45856
2017-04-14T08:03:02.908Z,97056
2017-04-14T08:04:03.442Z,83040
2017-04-14T08:05:04.126Z,95264
2017-04-14T08:06:04.506Z,92384
2017-04-14T08:07:05.183Z,41664
2017-04-14T08:08:05.565Z,48608
2017-04-14T08:09:06.103Z,110496
2017-04-14T08:10:06.621Z,116192
2017-04-14T08:12:07.689Z,88160
2017-04-14T08:13:08.211Z,51136
2017-04-14T08:14:08.739Z,57216
2017-04-14T08:15:09.414Z,65792
2017-04-14T08:16:09.795Z,69280
2017-04-14T08:17:10.323Z,77440
2017-04-14T08:18:10.859Z,100448
2017-04-14T08:19:11.390Z,53536
2017-04-14T08:20:11.917Z,44736
2017-04-14T08:21:12.451Z,42336
2017-04-14T08:22:12.980Z,38176
2017-04-14T08:23:13.507Z,44608
2017-04-14T08:24:14.041Z,46624
2017-04-14T08:25:14.583Z,46560
2017-04-14T08:26:15.114Z,90144
2017-04-14T08:27:15.786Z,94912
2017-04-14T08:28:16.309Z,93440
2017-04-14T08:29:16.689Z,91712
2017-04-14T08:30:17.221Z,83168
2017-04-14T08:31:17.750Z,69216
2017-04-14T08:32:18.280Z,100736
2017-04-14T08:33:18.807Z,98464
2017-04-14T08:34:19.340Z,94848
2017-04-14T08:35:19.864Z,93568
2017-04-14T08:36:20.398Z,94336
2017-04-14T08:37:21.076Z,90368
2017-04-14T08:38:21.461Z,69792
2017-04-14T08:39:21.998Z,97536
2017-04-14T08:40:22.525Z,94784
2017-04-14T08:41:23.059Z,93248
2017-04-14T08:42:23.594Z,93248
2017-04-14T08:43:24.135Z,93824
2017-04-14T08:44:24.655Z,95296
2017-04-14T08:45:25.198Z,100000
2017-04-14T08:46:25.722Z,103040
2017-04-14T08:47:26.256Z,107584
2017-04-14T08:48:26.782Z,106944
2017-04-14T08:49:27.312Z,107744
2017-04-14T08:50:27.849Z,106880
2017-04-14T08:51:28.382Z,102400
2017-04-14T08:52:28.915Z,97120
2017-04-14T08:53:29.436Z,92512
2017-04-14T08:54:29.971Z,89216
2017-04-14T08:55:30.499Z,90688
2017-04-14T08:56:31.040Z,95040
2017-04-14T08:57:31.566Z,98976
2017-04-14T08:58:32.097Z,100608
2017-04-14T08:59:32.626Z,99424
2017-04-14T09:00:33.155Z,95296
2017-04-14T09:01:33.682Z,96896
2017-04-14T09:02:34.213Z,100576
2017-04-14T09:03:34.744Z,101920
2017-04-14T09:04:35.278Z,103744
2017-04-14T09:05:35.804Z,105568
2017-04-14T09:06:36.334Z,108384
2017-04-14T09:07:36.866Z,110176
2017-04-14T09:08:37.403Z,111040
2017-04-14T09:09:38.076Z,111008
2017-04-14T09:10:38.459Z,111840
2017-04-14T09:11:38.987Z,117408
2017-04-14T09:12:39.514Z,125056
2017-04-14T09:13:40.055Z,76672
2017-04-14T09:14:40.575Z,69248
2017-04-14T09:15:41.105Z,57664
2017-04-14T09:16:41.636Z,58176
2017-04-14T09:17:42.315Z,60064
2017-04-14T09:18:42.697Z,142976
2017-04-14T09:19:43.220Z,60896
2017-04-14T09:20:43.755Z,74848
2017-04-14T09:21:44.437Z,62752
2017-04-14T09:22:44.824Z,66912
2017-04-14T09:23:45.364Z,64032
2017-04-14T09:24:45.891Z,69024
2017-04-14T09:25:46.575Z,59232
2017-04-14T09:26:46.957Z,81280
2017-04-14T09:27:47.637Z,93728
2017-04-14T09:28:48.016Z,113856
2017-04-14T09:29:48.699Z,108992
2017-04-14T09:30:49.083Z,106720
2017-04-14T09:31:49.760Z,105888
2017-04-14T09:32:50.141Z,107168
2017-04-14T09:33:50.672Z,104864
2017-04-14T09:34:51.200Z,77312
2017-04-14T09:35:51.727Z,46784
2017-04-14T09:36:52.405Z,92928
2017-04-14T09:37:52.801Z,105248
2017-04-14T09:38:53.321Z,103200
2017-04-14T09:39:53.847Z,106080
2017-04-14T09:40:54.377Z,106272
2017-04-14T09:41:54.912Z,106400
2017-04-14T09:42:55.439Z,107168
2017-04-14T09:43:55.967Z,104864
2017-04-14T09:44:56.498Z,102976
2017-04-14T09:45:57.028Z,101536
2017-04-14T09:46:57.563Z,102368
2017-04-14T09:47:58.093Z,101984
2017-04-14T09:48:58.624Z,104064
2017-04-14T09:49:59.151Z,106496
2017-04-14T09:50:59.685Z,110464
2017-04-14T09:52:00.212Z,110560
2017-04-14T09:53:00.743Z,103840
2017-04-14T09:54:01.272Z,105760
2017-04-14T09:55:01.802Z,101216
2017-04-14T09:56:02.335Z,99520
2017-04-14T09:57:02.868Z,101600
2017-04-14T09:58:03.446Z,107296
2017-04-14T09:59:03.931Z,111552
2017-04-14T10:00:04.455Z,115328
2017-04-14T10:01:04.983Z,113088
2017-04-14T10:02:05.520Z,111904
2017-04-14T10:03:06.045Z,69824
2017-04-14T10:04:06.729Z,111040
2017-04-14T10:05:07.117Z,111552
2017-04-14T10:06:07.795Z,102496
2017-04-14T10:07:08.179Z,116544
2017-04-14T10:08:08.709Z,122304
2017-04-14T10:09:09.240Z,125568
2017-04-14T10:10:09.766Z,130240
2017-04-14T10:11:10.305Z,132384
2017-04-14T10:12:10.827Z,134080
2017-04-14T10:13:11.362Z,135040
2017-04-14T10:14:11.899Z,137152
2017-04-14T10:15:12.417Z,140288
2017-04-14T10:16:12.942Z,135552
2017-04-14T10:17:13.476Z,56736
2017-04-14T10:18:14.009Z,76928
2017-04-14T10:19:14.528Z,62336
2017-04-14T10:20:15.060Z,160960
2017-04-14T10:21:15.590Z,82240
2017-04-14T10:22:16.129Z,98240
2017-04-14T10:23:16.654Z,63040
2017-04-14T10:24:17.189Z,59520
2017-04-14T10:25:17.718Z,57952
2017-04-14T10:26:18.252Z,57952
2017-04-14T10:27:18.775Z,57888
2017-04-14T10:28:19.307Z,57216
2017-04-14T10:29:19.978Z,55552
2017-04-14T10:30:20.360Z,54400
2017-04-14T10:31:20.892Z,52480
2017-04-14T10:32:21.422Z,50880
2017-04-14T10:33:21.956Z,50688
2017-04-14T10:34:22.489Z,51904
2017-04-14T10:35:23.015Z,53504
2017-04-14T10:36:23.543Z,55872
2017-04-14T10:37:24.079Z,57472
2017-04-14T10:38:26.108Z,56352
2017-04-14T10:39:25.142Z,53568
2017-04-14T10:40:25.817Z,50432
2017-04-14T10:41:26.201Z,47904
2017-04-14T10:42:26.730Z,48288
2017-04-14T10:43:27.273Z,49824
2017-04-14T10:44:27.801Z,52032
2017-04-14T10:45:28.347Z,53024
2017-04-14T10:46:28.868Z,54016
2017-04-14T10:47:29.409Z,55744
2017-04-14T10:48:29.939Z,57376
2017-04-14T10:49:30.471Z,58880
2017-04-14T10:50:30.997Z,59840
2017-04-14T10:51:31.530Z,60448
2017-04-14T10:52:32.058Z,60864
2017-04-14T10:53:32.596Z,60320
2017-04-14T10:54:33.129Z,58464
2017-04-14T10:55:33.804Z,55392
2017-04-14T10:56:34.189Z,51840
2017-04-14T10:57:34.725Z,48032
2017-04-14T10:58:35.255Z,44736
2017-04-14T10:59:35.780Z,42304
2017-04-14T11:00:36.308Z,40800
2017-04-14T11:01:36.839Z,40256
2017-04-14T11:02:37.370Z,40800
2017-04-14T11:03:37.899Z,42656
2017-04-14T11:04:38.429Z,46272
2017-04-14T11:05:38.962Z,50272
2017-04-14T11:06:39.493Z,53824
2017-04-14T11:07:40.025Z,57088
2017-04-14T11:08:40.590Z,60224
2017-04-14T11:09:41.083Z,62208
2017-04-14T11:10:41.618Z,62816
2017-04-14T11:11:42.149Z,62144
2017-04-14T11:12:42.677Z,61568
2017-04-14T11:13:43.212Z,61888
2017-04-14T11:14:43.734Z,62112
2017-04-14T11:15:44.266Z,62624
2017-04-14T11:16:44.794Z,64000
2017-04-14T11:17:45.324Z,65088
2017-04-14T11:18:45.853Z,65184
2017-04-14T11:19:46.386Z,64416
2017-04-14T11:20:47.067Z,62464
2017-04-14T11:21:47.453Z,58560
2017-04-14T11:22:47.983Z,54976
2017-04-14T11:23:48.522Z,53984
2017-04-14T11:24:49.045Z,53888
2017-04-14T11:25:49.580Z,54048
2017-04-14T11:26:50.278Z,53984
2017-04-14T11:27:50.649Z,52032
2017-04-14T11:28:51.186Z,49376
2017-04-14T11:29:51.716Z,46624
2017-04-14T11:30:52.254Z,43104
2017-04-14T11:31:52.777Z,38080
2017-04-14T11:32:53.306Z,32768
2017-04-14T11:33:53.839Z,28384
2017-04-14T11:34:54.369Z,25184
2017-04-14T11:35:54.902Z,23296
2017-04-14T11:36:55.434Z,22720
2017-04-14T11:37:55.966Z,22912
2017-04-14T11:38:56.499Z,23008
2017-04-14T11:39:57.032Z,23168
2017-04-14T11:40:57.566Z,22976
2017-04-14T11:41:58.239Z,22624
2017-04-14T11:42:58.623Z,22560
2017-04-14T11:43:59.309Z,22496
2017-04-14T11:44:59.687Z,22208
2017-04-14T11:46:00.222Z,22112
2017-04-14T11:47:00.755Z,21728
2017-04-14T11:48:01.282Z,20896
2017-04-14T11:49:01.817Z,20224
2017-04-14T11:50:02.351Z,20192
2017-04-14T11:51:02.879Z,20672
2017-04-14T11:52:03.411Z,21440
2017-04-14T11:53:03.939Z,22720
2017-04-14T11:54:04.475Z,24576
2017-04-14T11:55:05.148Z,26848
2017-04-14T11:56:05.530Z,28832
2017-04-14T11:57:06.061Z,30304
2017-04-14T11:58:06.590Z,31328
2017-04-14T11:59:07.124Z,32896
2017-04-14T12:00:07.649Z,34784
2017-04-14T12:01:08.184Z,36192
2017-04-14T12:02:08.709Z,37344
2017-04-14T12:03:09.388Z,38880
2017-04-14T12:04:09.770Z,40192
2017-04-14T12:05:10.458Z,40864
2017-04-14T12:06:10.839Z,41184
2017-04-14T12:07:11.370Z,41344
2017-04-14T12:08:11.914Z,41504
2017-04-14T12:09:12.442Z,41888
2017-04-14T12:10:12.979Z,42432
2017-04-14T12:11:13.542Z,42816
2017-04-14T12:12:14.042Z,43072
2017-04-14T12:13:14.567Z,43136
2017-04-14T12:14:15.103Z,42976
2017-04-14T12:15:15.630Z,42784
2017-04-14T12:16:16.162Z,42464
2017-04-14T12:17:16.701Z,41856
2017-04-14T12:18:17.218Z,40352
2017-04-14T12:19:17.901Z,38944
2017-04-14T12:20:18.280Z,38208
2017-04-14T12:21:18.809Z,37600
2017-04-14T12:22:19.345Z,36896
2017-04-14T12:23:19.874Z,36416
2017-04-14T12:24:20.402Z,35840
2017-04-14T12:25:20.964Z,35072
2017-04-14T12:26:21.463Z,34016
2017-04-14T12:27:21.993Z,32640
2017-04-14T12:28:22.527Z,31296
2017-04-14T12:29:23.206Z,30560
2017-04-14T12:30:23.599Z,31200
2017-04-14T12:31:24.266Z,32768
2017-04-14T12:32:24.649Z,34240
2017-04-14T12:33:25.179Z,35360
2017-04-14T12:34:25.708Z,36480
2017-04-14T12:35:26.259Z,38144
2017-04-14T12:36:26.915Z,39488
2017-04-14T12:37:27.451Z,40128
2017-04-14T12:38:27.832Z,40544
2017-04-14T12:39:28.513Z,40896
2017-04-14T12:40:28.897Z,39968
2017-04-14T12:41:29.438Z,38304
2017-04-14T12:42:29.954Z,36416
2017-04-14T12:43:30.490Z,33504
2017-04-14T12:44:31.011Z,30912
2017-04-14T12:45:31.540Z,29056
2017-04-14T12:46:32.074Z,27968
2017-04-14T12:47:32.757Z,27968
2017-04-14T12:48:33.144Z,28736
2017-04-14T12:49:33.828Z,29792
2017-04-14T12:50:34.214Z,30368
2017-04-14T12:51:34.747Z,31040
2017-04-14T12:52:35.279Z,32672
2017-04-14T12:53:35.959Z,34944
2017-04-14T12:54:36.339Z,37056
2017-04-14T12:55:36.864Z,38720
2017-04-14T12:56:37.397Z,40000
2017-04-14T12:57:37.937Z,40896
2017-04-14T12:58:38.463Z,41664
2017-04-14T12:59:39.133Z,42208
2017-04-14T13:00:39.518Z,42464
2017-04-14T13:01:40.037Z,41408
2017-04-14T13:02:40.575Z,39552
2017-04-14T13:03:41.105Z,37440
2017-04-14T13:04:41.634Z,35136
2017-04-14T13:05:42.165Z,33088
2017-04-14T13:06:42.744Z,31520
2017-04-14T13:07:43.225Z,30496
2017-04-14T13:08:43.787Z,29984
2017-04-14T13:09:44.304Z,29696
2017-04-14T13:10:44.820Z,29376
2017-04-14T13:11:45.502Z,28960
2017-04-14T13:12:45.885Z,28512
2017-04-14T13:13:46.413Z,28224
2017-04-14T13:14:46.945Z,28224
2017-04-14T13:15:47.472Z,28064
2017-04-14T13:16:48.206Z,27776
2017-04-14T13:17:48.574Z,28096
2017-04-14T13:18:49.066Z,29472
2017-04-14T13:19:49.598Z,31328
2017-04-14T13:20:50.128Z,33696
2017-04-14T13:21:50.657Z,35776
2017-04-14T13:22:51.184Z,36736
2017-04-14T13:23:51.715Z,37440
2017-04-14T13:24:52.247Z,37344
2017-04-14T13:25:52.777Z,36032
2017-04-14T13:26:53.305Z,34784
2017-04-14T13:27:53.841Z,33056
2017-04-14T13:28:54.377Z,31264
2017-04-14T13:29:55.058Z,29504
2017-04-14T13:30:55.472Z,28096
2017-04-14T13:31:57.927Z,28224
2017-04-14T13:32:56.511Z,28096
2017-04-14T13:33:57.045Z,27712
2017-04-14T13:34:57.580Z,26560